Time;durP1;ratioP1;P1;durP2;ratioP2;P2;SDS_P1;SDS_P2;PMS_P1;PMS_P2;Temp;Humidity;BMP_temperature;BMP_pressure;BME280_temperature;BME280_humidity;BME280_pressure;Samples;Min_cycle;Max_cycle;Signal;HPM_P1;HPM_P2
2024/02/27 00:00:25;;;;;;;22.48;15.90;;;;;;;;;;4992421;28;20042;-76
2024/02/27 00:02:51;;;;;;;19.95;13.38;;;;;;;;;;4992187;28;20026;-76
2024/02/27 00:05:16;;;;;;;21.52;14.85;;;;;;;;;;4992158;28;20046;-76
2024/02/27 00:07:42;;;;;;;19.20;13.30;;;;;;;;;;4991391;28;20034;-77
2024/02/27 00:10:07;;;;;;;19.92;13.45;;;;;;;;;;4992072;28;20038;-76
2024/02/27 00:12:32;;;;;;;25.80;15.52;;;;;;;;;;4991546;28;20113;-76
2024/02/27 00:14:57;;;;;;;23.45;13.40;;;;;;;;;;4992012;28;20030;-76
2024/02/27 00:17:22;;;;;;;22.48;13.27;;;;;;;;;;4992380;28;20404;-76
2024/02/27 00:19:48;;;;;;;17.50;13.25;;;;;;;;;;4992052;28;20026;-76
2024/02/27 00:22:13;;;;;;;21.33;13.50;;;;;;;;;;4991388;28;20511;-76
2024/02/27 00:24:38;;;;;;;22.33;15.05;;;;;;;;;;4992023;28;20022;-76
2024/02/27 00:27:03;;;;;;;21.38;14.68;;;;;;;;;;4991776;28;20105;-76
2024/02/27 00:29:31;;;;;;;21.52;13.40;;;;;;;;;;4991901;28;20037;-76
2024/02/27 00:31:57;;;;;;;24.67;15.15;;;;;;;;;;4990812;28;20085;-76
2024/02/27 00:34:22;;;;;;;21.13;14.07;;;;;;;;;;4991787;28;20026;-76
2024/02/27 00:36:47;;;;;;;21.63;14.73;;;;;;;;;;4991961;28;20454;-76
2024/02/27 00:39:12;;;;;;;22.50;13.02;;;;;;;;;;4991056;28;20121;-76
2024/02/27 00:41:38;;;;;;;20.38;12.80;;;;;;;;;;4991089;28;20041;-75
2024/02/27 00:44:05;;;;;;;19.30;13.20;;;;;;;;;;4991409;28;20633;-76
2024/02/27 00:46:31;;;;;;;22.95;13.57;;;;;;;;;;4987986;28;20022;-76
2024/02/27 00:48:56;;;;;;;21.77;12.07;;;;;;;;;;4991574;28;20034;-76
2024/02/27 00:51:21;;;;;;;22.40;16.27;;;;;;;;;;4990789;28;20101;-76
2024/02/27 00:53:46;;;;;;;20.45;13.10;;;;;;;;;;4992311;28;20430;-76
2024/02/27 00:56:11;;;;;;;17.50;12.05;;;;;;;;;;4990051;28;20101;-76
2024/02/27 00:58:36;;;;;;;20.58;12.73;;;;;;;;;;4990148;28;20491;-76
2024/02/27 01:01:02;;;;;;;20.48;13.18;;;;;;;;;;4989454;28;20414;-76
2024/02/27 01:03:28;;;;;;;18.77;12.52;;;;;;;;;;4991704;28;20044;-76
2024/02/27 01:05:54;;;;;;;18.25;13.27;;;;;;;;;;4991259;28;20037;-76
2024/02/27 01:08:19;;;;;;;22.58;13.77;;;;;;;;;;4990429;28;20414;-77
2024/02/27 01:10:44;;;;;;;17.52;12.73;;;;;;;;;;4990036;28;20121;-76
2024/02/27 01:13:09;;;;;;;21.83;14.10;;;;;;;;;;4991238;28;20438;-75
2024/02/27 01:15:34;;;;;;;17.92;11.50;;;;;;;;;;4990975;28;20105;-77
2024/02/27 01:18:00;;;;;;;20.45;13.43;;;;;;;;;;4993512;28;20107;-76
2024/02/27 01:20:25;;;;;;;19.70;12.20;;;;;;;;;;4990864;28;20040;-76
2024/02/27 01:22:51;;;;;;;20.98;12.38;;;;;;;;;;4992714;28;20046;-77
2024/02/27 01:25:16;;;;;;;20.67;12.18;;;;;;;;;;4990704;28;20034;-76
2024/02/27 01:27:42;;;;;;;17.50;12.48;;;;;;;;;;4991039;28;20693;-76
2024/02/27 01:30:07;;;;;;;21.50;13.57;;;;;;;;;;4990662;28;20042;-76
2024/02/27 01:32:32;;;;;;;19.80;13.05;;;;;;;;;;4990584;28;20072;-76
2024/02/27 01:34:57;;;;;;;20.80;12.82;;;;;;;;;;4990644;28;20384;-78
2024/02/27 01:37:23;;;;;;;17.65;11.27;;;;;;;;;;4987273;28;20026;-77
2024/02/27 01:39:48;;;;;;;20.42;13.50;;;;;;;;;;4990703;28;20038;-76
2024/02/27 01:42:13;;;;;;;19.58;12.05;;;;;;;;;;4990149;28;20031;-76
2024/02/27 01:44:45;;;;;;;19.33;12.45;;;;;;;;;;4990681;28;20113;-76
2024/02/27 01:47:10;;;;;;;17.27;11.15;;;;;;;;;;4990604;28;20038;-76
2024/02/27 01:49:35;;;;;;;19.02;11.95;;;;;;;;;;4990623;28;20125;-76
2024/02/27 01:52:01;;;;;;;17.70;11.55;;;;;;;;;;4990114;28;20038;-76
2024/02/27 01:54:26;;;;;;;20.23;11.27;;;;;;;;;;4990474;28;20041;-76
2024/02/27 01:56:52;;;;;;;15.45;10.55;;;;;;;;;;4990615;28;20042;-76
2024/02/27 01:59:19;;;;;;;16.75;12.05;;;;;;;;;;4989105;28;20046;-76
2024/02/27 02:01:44;;;;;;;17.00;11.63;;;;;;;;;;4990243;28;20045;-76
2024/02/27 02:04:11;;;;;;;15.52;10.40;;;;;;;;;;4988952;28;20034;-76
2024/02/27 02:06:37;;;;;;;20.00;11.85;;;;;;;;;;4990063;28;20026;-76
2024/02/27 02:09:02;;;;;;;16.55;11.65;;;;;;;;;;4990372;28;20092;-75
2024/02/27 02:11:27;;;;;;;20.35;12.48;;;;;;;;;;4989945;28;20026;-76
2024/02/27 02:13:53;;;;;;;21.30;12.93;;;;;;;;;;4989941;28;20109;-75
2024/02/27 02:16:18;;;;;;;19.65;12.00;;;;;;;;;;4990245;28;20113;-76
2024/02/27 02:18:43;;;;;;;17.83;12.52;;;;;;;;;;4990650;28;20030;-76
2024/02/27 02:21:08;;;;;;;16.80;11.15;;;;;;;;;;4992411;28;20077;-76
2024/02/27 02:23:33;;;;;;;19.55;12.15;;;;;;;;;;4993955;28;20076;-78
2024/02/27 02:26:02;;;;;;;20.73;12.63;;;;;;;;;;4994070;28;20026;-77
2024/02/27 02:28:27;;;;;;;19.60;11.32;;;;;;;;;;4994608;28;20089;-77
2024/02/27 02:30:52;;;;;;;18.92;11.55;;;;;;;;;;4993661;28;20042;-76
2024/02/27 02:33:18;;;;;;;16.17;10.75;;;;;;;;;;4992757;28;20112;-77
2024/02/27 02:35:44;;;;;;;19.33;11.88;;;;;;;;;;4993932;28;20110;-77
2024/02/27 02:38:09;;;;;;;18.58;12.80;;;;;;;;;;4994032;28;20518;-76
2024/02/27 02:40:34;;;;;;;21.80;13.45;;;;;;;;;;4993797;28;20025;-76
2024/02/27 02:42:59;;;;;;;19.60;12.66;;;;;;;;;;4993484;28;20121;-76
2024/02/27 02:45:24;;;;;;;18.52;11.20;;;;;;;;;;4994227;28;20034;-76
2024/02/27 02:47:50;;;;;;;18.52;11.07;;;;;;;;;;4994066;28;20058;-76
2024/02/27 02:50:15;;;;;;;23.38;11.70;;;;;;;;;;4993380;28;20046;-75
2024/02/27 02:52:40;;;;;;;16.73;10.95;;;;;;;;;;4993303;28;20034;-75
2024/02/27 02:55:06;;;;;;;19.70;11.68;;;;;;;;;;4993378;28;20037;-76
2024/02/27 02:57:31;;;;;;;18.75;12.52;;;;;;;;;;4993835;28;20487;-76
2024/02/27 02:59:57;;;;;;;17.80;11.52;;;;;;;;;;4993742;28;20050;-76
2024/02/27 03:02:22;;;;;;;20.77;12.05;;;;;;;;;;4992987;28;20380;-76
2024/02/27 03:04:47;;;;;;;21.48;12.65;;;;;;;;;;4993371;28;20066;-76
2024/02/27 03:07:12;;;;;;;19.25;12.02;;;;;;;;;;4993374;28;20109;-76
2024/02/27 03:09:37;;;;;;;19.98;12.20;;;;;;;;;;4990998;28;20034;-76
2024/02/27 03:12:03;;;;;;;18.15;11.10;;;;;;;;;;4989625;28;20034;-76
2024/02/27 03:14:28;;;;;;;22.67;14.20;;;;;;;;;;4994463;28;20092;-76
2024/02/27 03:16:53;;;;;;;18.42;13.45;;;;;;;;;;4993440;28;20113;-76
2024/02/27 03:19:18;;;;;;;19.23;11.88;;;;;;;;;;4993954;28;20072;-76
2024/02/27 03:21:43;;;;;;;19.02;12.52;;;;;;;;;;4992725;28;20030;-76
2024/02/27 03:24:09;;;;;;;19.83;13.15;;;;;;;;;;4992859;28;20039;-76
2024/02/27 03:26:34;;;;;;;17.55;11.80;;;;;;;;;;4993321;28;20030;-75
2024/02/27 03:28:59;;;;;;;19.77;12.23;;;;;;;;;;4993166;28;20038;-76
2024/02/27 03:31:24;;;;;;;18.25;12.60;;;;;;;;;;4991461;28;20026;-76
2024/02/27 03:33:49;;;;;;;19.83;12.85;;;;;;;;;;4991520;28;20113;-76
2024/02/27 03:36:14;;;;;;;20.27;12.57;;;;;;;;;;4992376;28;20038;-76
2024/02/27 03:38:40;;;;;;;21.60;14.93;;;;;;;;;;4992907;28;20026;-76
2024/02/27 03:41:10;;;;;;;21.77;12.20;;;;;;;;;;4992146;28;20422;-76
2024/02/27 03:43:35;;;;;;;20.77;12.63;;;;;;;;;;4992364;28;20112;-76
2024/02/27 03:46:00;;;;;;;20.10;12.30;;;;;;;;;;4992754;28;20447;-77
2024/02/27 03:48:25;;;;;;;18.13;11.70;;;;;;;;;;4992558;28;20038;-76
2024/02/27 03:50:51;;;;;;;21.45;14.20;;;;;;;;;;4992342;28;20037;-77
2024/02/27 03:53:16;;;;;;;22.05;14.50;;;;;;;;;;4992534;28;20026;-76
2024/02/27 03:55:41;;;;;;;18.38;12.75;;;;;;;;;;4992543;28;20050;-76
2024/02/27 03:58:06;;;;;;;18.72;13.92;;;;;;;;;;4992489;28;20037;-76
2024/02/27 04:00:31;;;;;;;20.30;12.68;;;;;;;;;;4992138;28;20081;-76
2024/02/27 04:02:57;;;;;;;20.83;13.60;;;;;;;;;;4992195;28;20129;-75
2024/02/27 04:05:22;;;;;;;22.05;14.07;;;;;;;;;;4992221;28;20407;-75
2024/02/27 04:07:47;;;;;;;19.73;12.90;;;;;;;;;;4992372;28;20392;-76
2024/02/27 04:10:12;;;;;;;21.92;12.48;;;;;;;;;;4991907;28;20030;-77
2024/02/27 04:12:37;;;;;;;19.95;11.75;;;;;;;;;;4992280;28;20022;-76
2024/02/27 04:15:03;;;;;;;18.33;11.35;;;;;;;;;;4992048;28;20035;-76
2024/02/27 04:17:28;;;;;;;19.15;11.13;;;;;;;;;;4992371;28;20037;-76
2024/02/27 04:19:58;;;;;;;19.88;11.77;;;;;;;;;;5000420;28;20038;-76
2024/02/27 04:22:23;;;;;;;17.25;11.18;;;;;;;;;;4991146;28;20034;-76
2024/02/27 04:24:48;;;;;;;19.67;12.65;;;;;;;;;;4991876;28;20096;-76
2024/02/27 04:27:13;;;;;;;20.63;12.18;;;;;;;;;;4991857;28;20069;-76
2024/02/27 04:29:41;;;;;;;22.60;12.20;;;;;;;;;;4991843;28;20038;-76
2024/02/27 04:32:07;;;;;;;23.02;12.85;;;;;;;;;;4991391;28;20494;-76
2024/02/27 04:34:32;;;;;;;21.55;13.75;;;;;;;;;;4991577;28;20166;-76
2024/02/27 04:36:57;;;;;;;19.35;12.45;;;;;;;;;;4991615;28;20031;-76
2024/02/27 04:39:23;;;;;;;22.88;14.55;;;;;;;;;;4991516;28;20026;-76
2024/02/27 04:41:48;;;;;;;23.15;13.50;;;;;;;;;;4991241;28;20034;-77
2024/02/27 04:44:13;;;;;;;21.35;13.25;;;;;;;;;;4991058;28;20049;-75
2024/02/27 04:46:38;;;;;;;19.38;12.23;;;;;;;;;;4991800;28;20165;-76
2024/02/27 04:49:03;;;;;;;19.50;12.60;;;;;;;;;;4984327;28;20038;-77
2024/02/27 04:51:28;;;;;;;19.52;12.40;;;;;;;;;;4991783;28;20046;-78
2024/02/27 04:53:54;;;;;;;20.42;13.10;;;;;;;;;;4987173;28;20399;-77
2024/02/27 04:56:19;;;;;;;20.55;14.55;;;;;;;;;;4991210;28;20034;-77
2024/02/27 04:58:44;;;;;;;20.70;13.57;;;;;;;;;;4991219;28;20478;-77
2024/02/27 05:01:13;;;;;;;20.30;14.02;;;;;;;;;;4989485;28;20081;-77
2024/02/27 05:03:39;;;;;;;21.95;14.50;;;;;;;;;;4990531;28;20054;-77
2024/02/27 05:06:04;;;;;;;20.55;14.05;;;;;;;;;;4991146;28;20076;-77
2024/02/27 05:08:29;;;;;;;20.33;13.27;;;;;;;;;;4994012;28;20449;-77
2024/02/27 05:10:54;;;;;;;19.95;11.68;;;;;;;;;;4993316;28;20494;-76
2024/02/27 05:13:19;;;;;;;18.25;11.52;;;;;;;;;;4992503;28;20141;-75
2024/02/27 05:15:44;;;;;;;18.70;12.10;;;;;;;;;;4990966;28;20566;-76
2024/02/27 05:18:10;;;;;;;22.50;13.38;;;;;;;;;;4987263;28;20084;-76
2024/02/27 05:20:35;;;;;;;21.13;14.27;;;;;;;;;;4990802;28;20035;-76
2024/02/27 05:23:00;;;;;;;23.00;14.43;;;;;;;;;;4990574;28;20108;-76
2024/02/27 05:25:25;;;;;;;23.75;15.27;;;;;;;;;;4990667;28;20041;-76
2024/02/27 05:27:51;;;;;;;17.70;11.98;;;;;;;;;;4991280;28;20046;-76
2024/02/27 05:30:16;;;;;;;23.10;13.70;;;;;;;;;;4990518;28;20077;-76
2024/02/27 05:32:41;;;;;;;20.45;14.38;;;;;;;;;;4990499;28;20034;-76
2024/02/27 05:35:06;;;;;;;21.23;14.10;;;;;;;;;;4989525;28;20118;-76
2024/02/27 05:37:32;;;;;;;20.67;14.48;;;;;;;;;;4990856;28;20403;-77
2024/02/27 05:39:57;;;;;;;21.67;14.18;;;;;;;;;;4990848;28;20038;-76
2024/02/27 05:42:25;;;;;;;21.50;13.45;;;;;;;;;;4989834;28;20053;-77
2024/02/27 05:44:50;;;;;;;24.55;14.85;;;;;;;;;;4990040;28;20066;-76
2024/02/27 05:47:15;;;;;;;22.00;14.25;;;;;;;;;;4989830;28;20065;-76
2024/02/27 05:49:41;;;;;;;19.83;13.00;;;;;;;;;;4990354;28;20034;-77
2024/02/27 05:52:06;;;;;;;21.48;13.02;;;;;;;;;;4990062;28;20033;-76
2024/02/27 05:54:32;;;;;;;21.02;12.93;;;;;;;;;;4985529;28;20033;-76
2024/02/27 05:56:57;;;;;;;21.38;13.93;;;;;;;;;;4989764;28;20084;-76
2024/02/27 05:59:22;;;;;;;24.88;15.50;;;;;;;;;;4989736;28;20038;-76
2024/02/27 06:01:47;;;;;;;20.33;13.60;;;;;;;;;;4990131;28;20092;-76
2024/02/27 06:04:12;;;;;;;17.92;11.73;;;;;;;;;;4988773;28;20041;-76
2024/02/27 06:06:38;;;;;;;21.10;12.70;;;;;;;;;;4990138;28;20054;-76
2024/02/27 06:09:03;;;;;;;23.27;15.82;;;;;;;;;;4990563;28;20038;-77
2024/02/27 06:11:28;;;;;;;21.45;13.63;;;;;;;;;;4989917;28;20023;-78
2024/02/27 06:13:54;;;;;;;18.55;13.02;;;;;;;;;;4988985;28;20034;-77
2024/02/27 06:16:19;;;;;;;19.27;12.32;;;;;;;;;;4990484;28;20525;-76
2024/02/27 06:18:47;;;;;;;18.58;12.00;;;;;;;;;;4990487;28;20065;-76
2024/02/27 06:23:56;;;;;;;18.73;11.70;;;;;;;;;;4990202;28;20395;-76
2024/02/27 06:26:21;;;;;;;19.88;12.10;;;;;;;;;;4990321;28;20042;-77
2024/02/27 06:28:47;;;;;;;17.42;11.75;;;;;;;;;;4990373;28;20037;-76
2024/02/27 06:31:13;;;;;;;19.98;12.85;;;;;;;;;;4989745;28;20034;-77
2024/02/27 06:33:38;;;;;;;22.05;13.63;;;;;;;;;;4989979;28;20137;-76
2024/02/27 06:36:03;;;;;;;17.15;11.88;;;;;;;;;;4990443;28;20053;-77
2024/02/27 06:38:28;;;;;;;20.60;12.98;;;;;;;;;;4990113;28;20034;-76
2024/02/27 06:40:54;;;;;;;18.67;12.75;;;;;;;;;;4989666;28;20046;-76
2024/02/27 06:43:19;;;;;;;18.58;12.68;;;;;;;;;;4991845;28;20398;-76
2024/02/27 06:45:44;;;;;;;18.35;11.48;;;;;;;;;;4990390;28;20022;-76
2024/02/27 06:48:10;;;;;;;20.40;11.73;;;;;;;;;;4990180;28;20057;-77
2024/02/27 06:50:35;;;;;;;22.33;12.75;;;;;;;;;;4988575;28;20026;-77
2024/02/27 06:53:00;;;;;;;15.82;10.80;;;;;;;;;;4988830;28;20027;-76
2024/02/27 06:55:26;;;;;;;18.98;11.63;;;;;;;;;;4989824;28;20574;-76
2024/02/27 06:57:51;;;;;;;18.75;10.82;;;;;;;;;;4989648;28;20069;-75
2024/02/27 07:00:16;;;;;;;19.80;11.65;;;;;;;;;;4989164;28;20038;-76
2024/02/27 07:02:42;;;;;;;21.40;11.02;;;;;;;;;;4989526;28;20115;-77
2024/02/27 07:05:07;;;;;;;14.85;10.20;;;;;;;;;;4990291;28;20038;-76
2024/02/27 07:07:32;;;;;;;17.92;10.88;;;;;;;;;;4993090;28;20647;-76
2024/02/27 07:09:58;;;;;;;18.75;12.20;;;;;;;;;;4993235;28;20096;-76
2024/02/27 07:12:23;;;;;;;21.70;11.60;;;;;;;;;;4990675;28;20018;-77
2024/02/27 07:14:48;;;;;;;16.48;10.40;;;;;;;;;;4995394;28;20022;-77
2024/02/27 07:17:15;;;;;;;18.00;11.88;;;;;;;;;;4992687;28;20076;-77
2024/02/27 07:19:44;;;;;;;19.20;10.55;;;;;;;;;;4995398;28;20045;-77
2024/02/27 07:22:09;;;;;;;16.45;10.98;;;;;;;;;;4992556;28;20399;-75
2024/02/27 07:24:34;;;;;;;17.35;11.15;;;;;;;;;;4992859;28;20038;-76
2024/02/27 07:27:00;;;;;;;18.80;11.20;;;;;;;;;;4993217;28;20038;-76
2024/02/27 07:29:25;;;;;;;19.65;11.57;;;;;;;;;;4992760;28;20046;-75
2024/02/27 07:31:51;;;;;;;15.52;10.48;;;;;;;;;;4992554;28;20032;-76
2024/02/27 07:34:17;;;;;;;19.00;11.43;;;;;;;;;;4993773;28;20023;-76
2024/02/27 07:36:45;;;;;;;19.73;12.35;;;;;;;;;;4993004;28;20502;-77
2024/02/27 07:39:10;;;;;;;20.77;11.48;;;;;;;;;;4990317;28;20403;-76
2024/02/27 07:41:36;;;;;;;19.45;11.32;;;;;;;;;;4990928;28;20026;-75
2024/02/27 07:44:01;;;;;;;18.92;11.18;;;;;;;;;;4992656;28;20038;-76
2024/02/27 07:46:27;;;;;;;19.67;12.02;;;;;;;;;;4991409;28;20088;-76
2024/02/27 07:48:52;;;;;;;16.02;10.02;;;;;;;;;;4992619;28;20041;-77
2024/02/27 07:51:30;;;;;;;21.52;11.23;;;;;;;;;;4992042;28;20125;-76
2024/02/27 07:53:55;;;;;;;16.25;10.75;;;;;;;;;;4995114;28;20037;-76
2024/02/27 07:56:21;;;;;;;16.92;10.52;;;;;;;;;;4992456;28;20109;-77
2024/02/27 07:58:46;;;;;;;17.77;11.35;;;;;;;;;;4992247;28;20038;-77
2024/02/27 08:01:11;;;;;;;15.75;9.68;;;;;;;;;;4993816;28;20026;-76
2024/02/27 08:03:36;;;;;;;17.77;10.68;;;;;;;;;;4990876;28;20030;-77
2024/02/27 08:06:02;;;;;;;18.10;11.07;;;;;;;;;;4990994;28;20054;-76
2024/02/27 08:08:28;;;;;;;19.35;12.00;;;;;;;;;;4992332;28;20525;-76
2024/02/27 08:10:55;;;;;;;15.95;10.13;;;;;;;;;;4991796;28;20407;-76
2024/02/27 08:13:20;;;;;;;17.83;10.40;;;;;;;;;;4992167;28;20122;-77
2024/02/27 08:15:46;;;;;;;18.13;10.27;;;;;;;;;;4992093;28;20542;-76
2024/02/27 08:18:11;;;;;;;14.48;9.40;;;;;;;;;;4991614;28;20563;-76
2024/02/27 08:20:36;;;;;;;19.75;12.15;;;;;;;;;;4992087;28;20034;-75
2024/02/27 08:23:01;;;;;;;15.95;10.80;;;;;;;;;;4991780;28;20026;-76
2024/02/27 08:25:28;;;;;;;19.65;11.90;;;;;;;;;;4991799;28;20030;-76
2024/02/27 08:27:53;;;;;;;18.20;10.23;;;;;;;;;;4990707;28;20080;-76
2024/02/27 08:30:18;;;;;;;15.82;10.60;;;;;;;;;;4991561;28;20562;-76
2024/02/27 08:32:44;;;;;;;18.15;11.45;;;;;;;;;;4991532;28;20022;-76
2024/02/27 08:35:09;;;;;;;16.33;10.23;;;;;;;;;;4991539;28;20162;-75
2024/02/27 08:37:34;;;;;;;13.63;9.07;;;;;;;;;;4999029;28;20023;-75
2024/02/27 08:39:59;;;;;;;17.67;9.88;;;;;;;;;;4991884;28;20494;-76
2024/02/27 08:42:25;;;;;;;16.30;10.07;;;;;;;;;;4990945;28;20030;-76
2024/02/27 08:44:50;;;;;;;15.43;9.48;;;;;;;;;;4991652;28;20057;-77
2024/02/27 08:47:15;;;;;;;14.30;9.23;;;;;;;;;;4991531;28;20057;-76
2024/02/27 08:49:41;;;;;;;20.00;11.23;;;;;;;;;;4988813;28;20060;-77
2024/02/27 08:52:07;;;;;;;17.95;11.07;;;;;;;;;;4989263;28;20037;-77
2024/02/27 08:54:34;;;;;;;27.35;13.07;;;;;;;;;;4991223;28;20435;-76
2024/02/27 08:56:59;;;;;;;23.10;12.77;;;;;;;;;;4991442;28;20423;-77
2024/02/27 08:59:24;;;;;;;20.40;11.93;;;;;;;;;;4992129;28;20040;-75
2024/02/27 09:01:50;;;;;;;19.58;12.07;;;;;;;;;;4990943;28;20089;-75
2024/02/27 09:04:15;;;;;;;16.80;10.75;;;;;;;;;;4991026;28;20034;-77
2024/02/27 09:06:41;;;;;;;22.48;12.63;;;;;;;;;;4993472;28;20109;-76
2024/02/27 09:09:06;;;;;;;19.27;10.85;;;;;;;;;;4988726;28;20391;-77
2024/02/27 09:11:32;;;;;;;20.33;12.07;;;;;;;;;;4992501;28;20026;-76
2024/02/27 09:13:57;;;;;;;22.88;12.25;;;;;;;;;;4988617;28;20022;-75
2024/02/27 09:16:22;;;;;;;21.48;11.90;;;;;;;;;;4988500;28;20061;-77
2024/02/27 09:18:47;;;;;;;21.42;12.45;;;;;;;;;;4989975;28;20030;-76
2024/02/27 09:21:13;;;;;;;22.88;12.18;;;;;;;;;;4988963;28;20060;-76
2024/02/27 09:23:38;;;;;;;22.30;12.02;;;;;;;;;;4990872;28;20030;-77
2024/02/27 09:26:04;;;;;;;22.80;13.20;;;;;;;;;;4989906;28;20034;-76
2024/02/27 09:28:29;;;;;;;23.75;13.48;;;;;;;;;;4990862;28;20507;-76
2024/02/27 09:30:54;;;;;;;22.67;12.70;;;;;;;;;;4988731;28;20483;-76
2024/02/27 09:33:20;;;;;;;27.38;15.13;;;;;;;;;;4989539;28;20031;-76
2024/02/27 09:35:45;;;;;;;30.40;15.25;;;;;;;;;;4990218;28;20412;-77
2024/02/27 09:38:10;;;;;;;31.10;14.57;;;;;;;;;;4989520;28;20018;-76
2024/02/27 09:40:35;;;;;;;24.33;13.27;;;;;;;;;;4990520;28;20036;-75
2024/02/27 09:43:01;;;;;;;35.88;16.55;;;;;;;;;;4989711;28;20054;-76
2024/02/27 09:45:26;;;;;;;31.75;15.80;;;;;;;;;;4972730;28;20038;-76
2024/02/27 09:47:52;;;;;;;28.58;14.93;;;;;;;;;;4990439;28;20065;-77
2024/02/27 09:50:18;;;;;;;30.92;15.13;;;;;;;;;;4992848;28;20038;-77
2024/02/27 09:52:45;;;;;;;29.35;15.30;;;;;;;;;;4989043;28;20030;-77
2024/02/27 09:55:10;;;;;;;36.17;16.95;;;;;;;;;;4990446;28;20401;-77
2024/02/27 09:57:37;;;;;;;32.50;16.73;;;;;;;;;;4990713;28;20031;-77
2024/02/27 10:00:02;;;;;;;34.30;16.13;;;;;;;;;;4992198;28;20042;-77
2024/02/27 10:02:38;;;;;;;33.60;16.00;;;;;;;;;;4989502;28;20038;-76
2024/02/27 10:05:04;;;;;;;34.80;17.33;;;;;;;;;;4990350;28;20356;-76
2024/02/27 10:07:30;;;;;;;34.35;16.27;;;;;;;;;;4990447;28;20038;-76
2024/02/27 10:09:56;;;;;;;34.17;16.50;;;;;;;;;;4990409;28;20089;-76
2024/02/27 10:12:21;;;;;;;33.83;17.10;;;;;;;;;;4988928;28;20038;-76
2024/02/27 10:14:46;;;;;;;34.65;16.85;;;;;;;;;;4990388;28;20117;-77
2024/02/27 10:17:11;;;;;;;37.38;16.45;;;;;;;;;;4990340;28;20097;-76
2024/02/27 10:19:37;;;;;;;35.15;14.95;;;;;;;;;;4990458;28;20503;-76
2024/02/27 10:22:03;;;;;;;33.88;17.33;;;;;;;;;;4989930;28;20034;-77
2024/02/27 10:24:28;;;;;;;42.42;18.23;;;;;;;;;;4990053;28;20034;-77
2024/02/27 10:26:54;;;;;;;36.35;17.00;;;;;;;;;;4990417;28;20535;-77
2024/02/27 10:29:21;;;;;;;40.60;18.25;;;;;;;;;;4989974;28;20108;-75
2024/02/27 10:31:46;;;;;;;43.08;21.15;;;;;;;;;;4988174;28;20027;-77
2024/02/27 10:34:11;;;;;;;42.28;18.77;;;;;;;;;;4989920;28;20156;-76
2024/02/27 10:36:37;;;;;;;38.17;17.70;;;;;;;;;;4992995;28;20026;-76
2024/02/27 10:39:09;;;;;;;37.42;18.35;;;;;;;;;;4990671;28;20117;-75
2024/02/27 10:41:34;;;;;;;41.83;20.48;;;;;;;;;;4989912;28;20030;-76
2024/02/27 10:43:59;;;;;;;43.33;19.80;;;;;;;;;;4993455;28;20042;-78
2024/02/27 10:46:25;;;;;;;44.60;21.48;;;;;;;;;;4993859;28;20030;-77
2024/02/27 10:48:50;;;;;;;44.85;21.95;;;;;;;;;;4994203;28;20065;-77
2024/02/27 10:51:16;;;;;;;43.58;20.33;;;;;;;;;;4993011;28;20036;-76
2024/02/27 10:53:42;;;;;;;42.55;20.38;;;;;;;;;;4993494;28;20049;-76
2024/02/27 10:56:08;;;;;;;44.08;19.58;;;;;;;;;;4992191;28;20030;-76
2024/02/27 10:58:34;;;;;;;49.60;22.75;;;;;;;;;;4994552;28;21365;-77
2024/02/27 11:00:59;;;;;;;51.35;23.48;;;;;;;;;;4996004;28;20513;-76
2024/02/27 11:03:25;;;;;;;53.97;24.20;;;;;;;;;;4993476;28;20030;-77
2024/02/27 11:05:51;;;;;;;48.53;22.38;;;;;;;;;;4990953;28;20117;-76
2024/02/27 11:08:16;;;;;;;49.78;24.52;;;;;;;;;;4993414;28;20491;-76
2024/02/27 11:10:42;;;;;;;42.63;20.10;;;;;;;;;;4994034;28;20061;-76
2024/02/27 11:13:08;;;;;;;41.42;20.00;;;;;;;;;;4997405;28;20084;-77
2024/02/27 11:15:33;;;;;;;43.53;20.85;;;;;;;;;;4993005;28;20093;-77
2024/02/27 11:18:06;;;;;;;37.17;20.03;;;;;;;;;;5003420;28;20445;-76
2024/02/27 11:20:32;;;;;;;42.50;22.35;;;;;;;;;;4992811;28;20049;-76
2024/02/27 11:22:57;;;;;;;40.95;20.80;;;;;;;;;;4992830;28;20479;-77
2024/02/27 11:25:23;;;;;;;37.03;19.10;;;;;;;;;;4992814;28;20031;-76
2024/02/27 11:27:49;;;;;;;39.00;18.83;;;;;;;;;;4993173;28;20026;-76
2024/02/27 11:30:18;;;;;;;44.95;19.55;;;;;;;;;;4992746;28;20026;-76
2024/02/27 11:32:44;;;;;;;38.33;18.98;;;;;;;;;;4992745;28;20110;-76
2024/02/27 11:35:09;;;;;;;39.67;20.10;;;;;;;;;;4992746;28;20030;-77
2024/02/27 11:37:34;;;;;;;38.55;19.98;;;;;;;;;;4992993;28;20023;-76
2024/02/27 11:40:00;;;;;;;44.45;21.58;;;;;;;;;;4992893;28;20042;-76
2024/02/27 11:42:26;;;;;;;39.05;19.98;;;;;;;;;;4986713;28;20027;-76
2024/02/27 11:45:02;;;;;;;47.25;23.23;;;;;;;;;;4991557;28;20042;-77
2024/02/27 11:47:32;;;;;;;40.90;21.77;;;;;;;;;;4991934;28;20521;-76
2024/02/27 11:49:57;;;;;;;41.47;20.80;;;;;;;;;;4989399;28;20033;-75
2024/02/27 11:52:22;;;;;;;41.47;21.50;;;;;;;;;;4991439;28;20026;-76
2024/02/27 11:54:47;;;;;;;40.85;21.00;;;;;;;;;;4992400;28;20110;-77
2024/02/27 11:57:13;;;;;;;49.90;23.30;;;;;;;;;;4991128;28;20125;-76
2024/02/27 11:59:38;;;;;;;49.42;23.98;;;;;;;;;;4992387;28;20034;-76
2024/02/27 12:02:04;;;;;;;48.83;23.88;;;;;;;;;;4992132;28;20038;-76
2024/02/27 12:04:29;;;;;;;52.15;23.85;;;;;;;;;;4992185;28;20030;-76
2024/02/27 12:06:55;;;;;;;53.90;24.83;;;;;;;;;;4991628;28;20089;-76
2024/02/27 12:09:26;;;;;;;51.65;23.55;;;;;;;;;;4991723;28;20043;-77
2024/02/27 12:11:52;;;;;;;50.55;24.23;;;;;;;;;;4992672;28;20125;-76
2024/02/27 12:14:18;;;;;;;51.80;24.13;;;;;;;;;;4991137;28;20224;-77
2024/02/27 12:16:44;;;;;;;50.53;23.52;;;;;;;;;;4991792;28;20030;-76
2024/02/27 12:19:09;;;;;;;53.60;25.02;;;;;;;;;;4992283;28;20415;-76
2024/02/27 12:21:34;;;;;;;62.88;26.50;;;;;;;;;;4991544;28;20126;-77
2024/02/27 12:24:16;;;;;;;65.43;27.75;;;;;;;;;;4991633;28;20030;-77
2024/02/27 12:26:42;;;;;;;60.63;27.20;;;;;;;;;;4992160;28;20121;-76
2024/02/27 12:29:12;;;;;;;53.65;25.65;;;;;;;;;;4992125;28;20348;-76
2024/02/27 12:31:38;;;;;;;54.67;25.33;;;;;;;;;;4989446;28;20034;-75
2024/02/27 12:34:07;;;;;;;56.90;25.17;;;;;;;;;;4987768;28;20414;-77
2024/02/27 12:36:32;;;;;;;63.15;28.38;;;;;;;;;;4991776;28;20022;-76
2024/02/27 12:38:57;;;;;;;56.28;26.23;;;;;;;;;;4992080;28;20046;-76
2024/02/27 12:41:23;;;;;;;56.85;25.48;;;;;;;;;;4990960;28;20042;-76
2024/02/27 12:43:49;;;;;;;52.15;24.80;;;;;;;;;;4991605;28;20039;-76
2024/02/27 12:46:14;;;;;;;61.78;25.10;;;;;;;;;;4990097;28;20411;-76
2024/02/27 12:48:40;;;;;;;53.65;24.73;;;;;;;;;;4991810;28;20710;-76
2024/02/27 12:51:05;;;;;;;49.38;23.10;;;;;;;;;;4994505;28;20109;-76
2024/02/27 12:53:32;;;;;;;52.13;22.85;;;;;;;;;;4990517;28;20093;-76
2024/02/27 12:55:57;;;;;;;51.90;22.65;;;;;;;;;;4993752;28;20081;-76
2024/02/27 12:58:23;;;;;;;57.33;23.25;;;;;;;;;;4991655;28;20034;-76
2024/02/27 13:00:48;;;;;;;54.13;21.88;;;;;;;;;;4991074;28;20037;-77
2024/02/27 13:03:13;;;;;;;48.40;23.35;;;;;;;;;;4990997;28;20396;-76
2024/02/27 13:05:39;;;;;;;53.10;23.55;;;;;;;;;;4990477;28;20034;-76
2024/02/27 13:08:04;;;;;;;48.30;21.58;;;;;;;;;;4994604;28;20133;-76
2024/02/27 13:10:31;;;;;;;54.17;21.38;;;;;;;;;;4990643;28;20042;-76
2024/02/27 13:13:16;;;;;;;43.50;20.25;;;;;;;;;;4987228;28;20117;-76
2024/02/27 13:15:42;;;;;;;45.53;21.65;;;;;;;;;;4997221;28;20113;-76
2024/02/27 13:18:08;;;;;;;49.30;20.52;;;;;;;;;;4991182;28;20026;-76
2024/02/27 13:20:33;;;;;;;52.75;22.15;;;;;;;;;;4990596;28;20498;-77
2024/02/27 13:22:59;;;;;;;46.78;21.90;;;;;;;;;;4973193;28;20413;-76
2024/02/27 13:25:24;;;;;;;49.13;22.67;;;;;;;;;;4990444;28;20034;-77
2024/02/27 13:27:49;;;;;;;60.97;27.35;;;;;;;;;;4991057;28;20387;-76
2024/02/27 13:30:15;;;;;;;42.85;20.80;;;;;;;;;;4993430;28;20042;-76
2024/02/27 13:32:41;;;;;;;46.85;21.17;;;;;;;;;;4990594;28;20038;-76
2024/02/27 13:35:06;;;;;;;45.40;21.50;;;;;;;;;;4990863;28;20034;-76
2024/02/27 13:37:31;;;;;;;53.88;21.50;;;;;;;;;;4991682;28;20045;-77
2024/02/27 13:39:56;;;;;;;53.80;22.02;;;;;;;;;;4990919;28;20066;-76
2024/02/27 13:42:22;;;;;;;55.25;22.95;;;;;;;;;;4990066;28;20030;-76
2024/02/27 13:44:47;;;;;;;47.60;21.17;;;;;;;;;;4989224;28;20036;-76
2024/02/27 13:47:12;;;;;;;51.60;22.98;;;;;;;;;;4989091;28;20038;-78
2024/02/27 13:49:37;;;;;;;46.50;22.10;;;;;;;;;;4990039;28;20034;-76
2024/02/27 13:52:03;;;;;;;50.75;21.90;;;;;;;;;;4989481;28;20038;-75
2024/02/27 13:54:29;;;;;;;53.25;22.98;;;;;;;;;;4987837;28;20038;-75
2024/02/27 13:56:54;;;;;;;43.30;20.27;;;;;;;;;;4989722;28;20036;-76
2024/02/27 13:59:20;;;;;;;43.58;21.00;;;;;;;;;;4989353;28;20517;-77
2024/02/27 14:01:45;;;;;;;49.38;20.73;;;;;;;;;;4987364;28;20031;-76
2024/02/27 14:04:10;;;;;;;49.10;23.55;;;;;;;;;;4992979;28;20498;-77
2024/02/27 14:06:35;;;;;;;61.78;24.80;;;;;;;;;;4990240;28;20042;-77
2024/02/27 14:09:00;;;;;;;49.85;20.95;;;;;;;;;;4990982;28;20034;-76